Time;durP1;ratioP1;P1;durP2;ratioP2;P2;SDS_P1;SDS_P2;PMS_P1;PMS_P2;Temp;Humidity;BMP_temperature;BMP_pressure;BME280_temperature;BME280_humidity;BME280_pressure;Samples;Min_cycle;Max_cycle;Signal;HPM_P1;HPM_P2
2023/10/14 00:01:13;;;;;;;8.95;0.70;;;13.20;99.90;;;;;;4976607;28;20058;-81
2023/10/14 00:03:43;;;;;;;13.52;0.60;;;13.20;99.90;;;;;;4977167;28;20501;-79
2023/10/14 00:06:13;;;;;;;7.82;0.63;;;13.20;99.90;;;;;;4976821;28;20061;-78
2023/10/14 00:09:00;;;;;;;12.05;0.57;;;13.20;99.90;;;;;;4976863;28;20049;-81
2023/10/14 00:11:35;;;;;;;8.63;0.40;;;13.20;99.90;;;;;;4968932;28;20855;-83
2023/10/14 00:14:14;;;;;;;9.02;0.77;;;13.20;99.90;;;;;;4975665;28;20053;-81
2023/10/14 00:16:42;;;;;;;6.07;0.50;;;13.30;99.90;;;;;;4978642;28;20088;-77
2023/10/14 00:19:09;;;;;;;8.77;0.70;;;13.20;99.90;;;;;;4975024;28;20572;-78
2023/10/14 00:21:36;;;;;;;10.60;0.50;;;13.20;99.90;;;;;;4973892;28;20104;-79
2023/10/14 00:24:05;;;;;;;11.43;0.95;;;13.20;99.90;;;;;;4986457;28;20060;-78
2023/10/14 00:26:31;;;;;;;9.40;0.90;;;13.20;99.90;;;;;;4976589;28;20799;-79
2023/10/14 00:29:11;;;;;;;9.75;1.00;;;13.20;99.90;;;;;;4982010;28;20493;-78
2023/10/14 00:31:38;;;;;;;7.22;0.50;;;13.20;99.90;;;;;;4985526;28;20878;-80
2023/10/14 00:34:04;;;;;;;17.17;1.33;;;13.20;99.90;;;;;;4985489;28;20052;-77
2023/10/14 00:36:34;;;;;;;13.38;1.25;;;13.20;99.90;;;;;;4990957;28;20053;-79
2023/10/14 00:39:12;;;;;;;11.13;0.98;;;13.10;99.90;;;;;;4982349;28;20112;-77
2023/10/14 00:41:50;;;;;;;8.68;0.60;;;13.10;99.90;;;;;;5007043;28;20224;-77
2023/10/14 00:44:17;;;;;;;13.40;0.98;;;12.90;99.90;;;;;;4995125;28;20073;-79
2023/10/14 00:46:50;;;;;;;12.20;0.98;;;12.80;99.90;;;;;;4991010;28;20431;-82
2023/10/14 00:49:31;;;;;;;11.90;1.25;;;12.60;99.90;;;;;;4996147;28;20564;-81
2023/10/14 00:52:05;;;;;;;16.20;0.98;;;12.50;99.90;;;;;;4998357;28;20107;-80
2023/10/14 00:57:10;;;;;;;15.20;1.00;;;12.30;99.90;;;;;;4985397;28;20146;-77
2023/10/14 00:59:37;;;;;;;15.68;1.35;;;12.30;99.90;;;;;;4992602;28;20121;-81
2023/10/14 01:02:05;;;;;;;15.55;1.00;;;12.30;99.90;;;;;;4997396;28;20049;-85
2023/10/14 01:04:34;;;;;;;14.52;1.77;;;12.10;99.90;;;;;;4987400;28;20109;-83
2023/10/14 01:07:12;;;;;;;11.20;0.95;;;12.10;99.90;;;;;;4998538;28;20088;-79
2023/10/14 01:12:16;;;;;;;18.15;1.20;;;12.00;99.90;;;;;;4982696;28;20068;-85
2023/10/14 01:14:53;;;;;;;9.30;0.70;;;10.80;99.90;;;;;;4996518;28;20513;-88
2023/10/14 01:19:54;;;;;;;17.30;2.17;;;15.00;99.90;;;;;;5004567;28;20054;-84
2023/10/14 01:22:20;;;;;;;16.95;1.50;;;11.90;99.90;;;;;;4992792;28;20505;-84
2023/10/14 01:24:46;;;;;;;17.85;2.42;;;9.70;99.90;;;;;;4980247;28;20045;-82
2023/10/14 01:27:13;;;;;;;16.77;1.15;;;11.70;99.90;;;;;;4977326;28;20587;-82
2023/10/14 01:29:40;;;;;;;22.40;1.90;;;11.70;99.90;;;;;;4993775;28;20690;-85
2023/10/14 01:35:22;;;;;;;23.10;1.55;;;11.50;99.90;;;;;;4996542;28;20054;-84
2023/10/14 01:37:48;;;;;;;11.85;1.00;;;11.40;99.90;;;;;;5005284;28;20060;-85
2023/10/14 01:40:24;;;;;;;7.35;0.98;;;11.30;99.90;;;;;;4996394;28;20049;-86
2023/10/14 01:42:56;;;;;;;23.20;1.60;;;11.20;99.90;;;;;;4995852;28;20085;-85
2023/10/14 01:45:29;;;;;;;8.73;1.27;;;11.10;99.90;;;;;;4990931;28;20060;-84
2023/10/14 01:50:46;;;;;;;21.15;1.48;;;11.00;99.90;;;;;;4995676;28;20064;-81
2023/10/14 01:53:23;;;;;;;24.33;1.67;;;11.50;99.90;;;;;;4996231;28;20049;-82
2023/10/14 01:55:52;;;;;;;15.50;1.27;;;10.80;99.90;;;;;;4983239;28;20161;-84
2023/10/14 01:58:22;;;;;;;12.32;1.30;;;11.00;99.90;;;;;;5002046;28;20680;-85
2023/10/14 02:00:56;;;;;;;16.70;1.20;;;10.60;99.90;;;;;;5005820;28;20123;-86
2023/10/14 02:03:23;;;;;;;18.58;1.70;;;10.60;99.90;;;;;;4992341;28;20083;-82
2023/10/14 02:05:52;;;;;;;20.45;1.63;;;11.60;99.90;;;;;;4995704;28;20049;-85
2023/10/14 02:08:23;;;;;;;27.45;2.05;;;10.40;99.90;;;;;;4996632;28;20064;-86
2023/10/14 02:10:50;;;;;;;24.88;1.67;;;10.50;99.90;;;;;;4994371;28;20057;-89
2023/10/14 02:13:18;;;;;;;21.08;1.20;;;10.40;99.90;;;;;;4995103;28;20042;-83
2023/10/14 02:15:48;;;;;;;14.80;1.13;;;;;;;;;;4995306;28;20597;-88
2023/10/14 02:18:16;;;;;;;23.20;1.35;;;10.40;99.90;;;;;;4996606;28;20049;-87
2023/10/14 02:20:56;;;;;;;17.48;1.30;;;10.10;99.90;;;;;;4990119;28;20152;-86
2023/10/14 02:23:30;;;;;;;16.30;1.77;;;10.20;99.90;;;;;;4989689;28;20049;-87
2023/10/14 02:25:56;;;;;;;15.48;1.88;;;10.10;99.90;;;;;;4990154;28;20611;-83
2023/10/14 02:28:23;;;;;;;17.02;1.42;;;10.10;99.90;;;;;;4995971;28;20074;-86
2023/10/14 02:30:51;;;;;;;15.80;1.30;;;10.00;99.90;;;;;;4997011;28;20438;-86
2023/10/14 02:33:19;;;;;;;17.10;1.63;;;10.40;99.90;;;;;;4983704;28;20073;-87
2023/10/14 02:35:45;;;;;;;17.90;1.58;;;9.90;99.90;;;;;;4990297;28;20113;-86
2023/10/14 02:38:11;;;;;;;27.75;1.65;;;9.90;99.90;;;;;;4999065;28;20045;-86
2023/10/14 02:40:37;;;;;;;21.90;1.55;;;9.80;99.90;;;;;;4992844;28;20515;-88
2023/10/14 02:43:04;;;;;;;27.50;1.80;;;10.50;99.90;;;;;;4990336;28;20468;-85
2023/10/14 02:45:35;;;;;;;23.23;1.95;;;9.70;99.90;;;;;;4989958;28;20820;-85
2023/10/14 02:48:02;;;;;;;;;;;9.70;99.90;;;;;;4997346;28;20580;-88
2023/10/14 02:50:28;;;;;;;22.80;1.73;;;9.60;99.90;;;;;;5001020;28;19926;-86
2023/10/14 02:53:01;;;;;;;13.68;1.75;;;9.50;99.90;;;;;;4979506;28;20076;-85
2023/10/14 02:55:50;;;;;;;25.55;1.58;;;9.50;99.90;;;;;;5014456;28;20085;-87
2023/10/14 02:58:13;;;;;;;24.05;1.67;;;10.00;99.90;;;;;;4997355;28;20061;-86
2023/10/14 03:00:40;;;;;;;18.33;1.33;;;9.40;99.90;;;;;;4979557;28;20097;-88
2023/10/14 03:03:11;;;;;;;23.42;1.58;;;9.40;99.90;;;;;;4990508;28;20061;-87
2023/10/14 03:05:42;;;;;;;27.45;2.40;;;9.80;99.90;;;;;;4987951;28;20122;-86
2023/10/14 03:08:12;;;;;;;15.65;1.60;;;10.40;99.90;;;;;;4992294;28;20053;-85
2023/10/14 03:10:55;;;;;;;24.98;4.00;;;9.30;99.90;;;;;;5000067;28;20046;-80
2023/10/14 03:13:22;;;;;;;;;;;10.00;99.90;;;;;;4978431;28;20419;-88
2023/10/14 03:15:52;;;;;;;21.85;1.73;;;9.30;99.90;;;;;;4985793;28;19932;-89
2023/10/14 03:18:19;;;;;;;19.73;1.63;;;9.40;99.90;;;;;;4999083;28;20050;-84
2023/10/14 03:20:59;;;;;;;23.48;2.33;;;9.50;99.90;;;;;;4985646;28;20118;-87
2023/10/14 03:23:27;;;;;;;23.48;2.70;;;;;;;;;;4990080;28;20045;-89
2023/10/14 03:26:05;;;;;;;15.35;2.10;;;9.30;99.90;;;;;;4976875;28;20092;-86
2023/10/14 03:28:37;;;;;;;15.18;2.33;;;9.30;99.90;;;;;;4999888;28;20125;-88
2023/10/14 03:31:07;;;;;;;20.75;2.28;;;10.50;99.90;;;;;;4993969;28;20054;-87
2023/10/14 03:33:42;;;;;;;23.73;1.50;;;9.20;99.90;;;;;;4994154;28;20054;-88
2023/10/14 03:36:15;;;;;;;18.67;1.75;;;9.20;99.90;;;;;;5001384;28;20058;-82
2023/10/14 03:38:42;;;;;;;19.52;2.90;;;9.20;99.90;;;;;;4996529;28;20073;-88
2023/10/14 03:41:19;;;;;;;20.92;2.70;;;9.10;99.90;;;;;;4979946;28;20061;-87
2023/10/14 03:46:47;;;;;;;23.95;2.70;;;9.80;99.90;;;;;;4992258;28;20061;-87
2023/10/14 03:49:22;;;;;;;16.73;1.80;;;8.90;99.90;;;;;;5006379;28;20131;-87
2023/10/14 03:51:54;;;;;;;26.40;1.95;;;9.00;99.90;;;;;;4981721;28;20084;-85
2023/10/14 03:54:23;;;;;;;14.13;1.98;;;9.60;99.90;;;;;;4986677;28;20064;-85
2023/10/14 03:56:50;;;;;;;26.17;2.70;;;8.90;99.90;;;;;;4984443;28;20045;-86
2023/10/14 03:59:25;;;;;;;19.38;1.75;;;8.80;99.90;;;;;;4980237;28;20123;-88
2023/10/14 04:02:07;;;;;;;17.95;1.55;;;8.90;99.90;;;;;;4995996;28;20064;-86
2023/10/14 04:04:34;;;;;;;18.85;1.80;;;8.90;99.90;;;;;;4985234;28;20129;-86
2023/10/14 04:12:08;;;;;;;14.18;1.30;;;8.80;99.90;;;;;;4978274;28;20097;-88
2023/10/14 04:14:37;;;;;;;19.90;2.42;;;8.70;99.90;;;;;;4997832;28;20177;-87
2023/10/14 04:17:10;;;;;;;15.27;1.42;;;8.70;99.90;;;;;;4994452;28;20148;-88
2023/10/14 04:22:41;;;;;;;14.45;1.45;;;8.60;99.90;;;;;;4905324;29;20170;-87
2023/10/14 04:27:45;;;;;;;21.23;3.05;;;8.60;99.90;;;;;;4957471;28;20076;-87
2023/10/14 04:30:16;;;;;;;14.85;2.00;;;11.60;99.90;;;;;;4991988;28;20052;-86
2023/10/14 04:32:46;;;;;;;17.48;1.52;;;8.70;99.90;;;;;;4999054;28;20507;-86
2023/10/14 04:35:14;;;;;;;14.68;1.27;;;;;;;;;;4989473;28;20057;-87
2023/10/14 04:37:52;;;;;;;15.18;1.60;;;8.50;99.90;;;;;;4969489;28;20683;-87
2023/10/14 04:43:12;;;;;;;27.95;3.75;;;8.30;99.90;;;;;;4990220;28;20058;-87
2023/10/14 04:45:45;;;;;;;16.33;1.52;;;8.20;99.90;;;;;;4997552;28;20500;-88
2023/10/14 04:48:12;;;;;;;11.52;1.13;;;8.20;99.90;;;;;;4971962;28;20079;-86
2023/10/14 04:50:41;;;;;;;19.15;1.38;;;8.70;99.90;;;;;;4991751;28;20743;-89
2023/10/14 04:53:09;;;;;;;12.88;1.30;;;;;;;;;;4986930;28;20140;-88
2023/10/14 04:55:43;;;;;;;17.33;1.17;;;8.10;99.90;;;;;;4991429;28;20524;-87
2023/10/14 04:58:14;;;;;;;16.73;2.50;;;;;;;;;;4991197;28;20085;-86
2023/10/14 05:00:42;;;;;;;12.20;1.35;;;8.10;99.90;;;;;;5005730;28;20517;-87
2023/10/14 05:03:12;;;;;;;15.10;0.98;;;7.90;99.90;;;;;;4998530;28;20049;-87
2023/10/14 05:05:43;;;;;;;23.73;1.73;;;8.00;99.90;;;;;;4998882;28;20330;-87
2023/10/14 05:08:12;;;;;;;16.83;1.95;;;8.20;99.90;;;;;;4994359;28;20053;-87
2023/10/14 05:10:42;;;;;;;20.58;3.10;;;8.10;99.90;;;;;;4999913;28;20975;-85
2023/10/14 05:13:13;;;;;;;19.00;1.83;;;8.10;99.90;;;;;;4990549;28;20046;-88
2023/10/14 05:15:41;;;;;;;20.55;1.75;;;8.10;99.90;;;;;;4987960;28;20053;-88
2023/10/14 05:18:16;;;;;;;24.63;2.88;;;8.70;99.90;;;;;;5000290;28;20391;-87
2023/10/14 05:23:24;;;;;;;18.35;2.35;;;;;;;;;;5000262;28;20052;-91
2023/10/14 05:25:56;;;;;;;17.10;1.38;;;;;;;;;;5009143;28;20496;-90
2023/10/14 05:28:29;;;;;;;23.90;2.50;;;8.00;99.90;;;;;;5008460;28;20053;-86
2023/10/14 05:31:08;;;;;;;14.77;1.70;;;7.90;99.90;;;;;;4989843;28;20527;-88
2023/10/14 05:33:37;;;;;;;17.17;1.05;;;7.90;99.90;;;;;;4995037;28;20523;-86
2023/10/14 05:36:05;;;;;;;12.60;1.20;;;7.70;99.90;;;;;;4990698;28;20049;-88
2023/10/14 05:38:31;;;;;;;20.73;1.33;;;7.90;99.90;;;;;;4991353;28;20057;-88
2023/10/14 05:41:00;;;;;;;20.00;1.58;;;7.30;99.90;;;;;;4999213;28;20512;-88
2023/10/14 05:43:26;;;;;;;22.73;2.33;;;7.80;99.90;;;;;;4992475;28;20064;-85
2023/10/14 05:45:53;;;;;;;22.08;1.83;;;7.80;99.90;;;;;;4998641;28;20057;-88
2023/10/14 05:48:26;;;;;;;20.55;2.67;;;10.70;99.90;;;;;;4985202;28;20065;-87
2023/10/14 05:50:56;;;;;;;16.35;1.45;;;8.40;99.90;;;;;;4987252;28;20038;-88
2023/10/14 05:53:26;;;;;;;20.90;1.85;;;8.00;99.90;;;;;;4996165;28;20529;-87
2023/10/14 05:55:59;;;;;;;17.90;1.85;;;11.00;99.90;;;;;;4991605;28;20135;-85
2023/10/14 05:58:28;;;;;;;24.60;1.58;;;8.00;99.90;;;;;;5000715;28;20049;-86
2023/10/14 06:00:55;;;;;;;19.58;1.45;;;9.30;99.90;;;;;;4984543;28;20081;-86
2023/10/14 06:03:21;;;;;;;26.90;2.42;;;8.00;99.90;;;;;;4995077;28;20132;-87
2023/10/14 06:05:46;;;;;;;29.25;2.03;;;5.40;99.90;;;;;;4989300;28;20055;-86
2023/10/14 06:08:16;;;;;;;14.00;1.05;;;8.10;99.90;;;;;;4999260;28;20060;-86
2023/10/14 06:10:43;;;;;;;25.15;1.70;;;8.00;99.90;;;;;;4999424;28;20041;-85
2023/10/14 06:13:09;;;;;;;23.60;2.13;;;8.00;99.90;;;;;;4993431;28;20497;-86
2023/10/14 06:15:40;;;;;;;20.45;1.80;;;8.00;99.90;;;;;;4982945;28;20049;-83
2023/10/14 06:18:08;;;;;;;20.17;1.45;;;8.00;99.90;;;;;;4974994;28;20050;-86
2023/10/14 06:20:35;;;;;;;18.75;1.75;;;8.00;99.90;;;;;;4989258;28;20046;-83
2023/10/14 06:23:01;;;;;;;18.20;2.15;;;8.00;99.90;;;;;;4982972;28;20135;-85
2023/10/14 06:25:29;;;;;;;27.75;3.85;;;8.00;99.90;;;;;;4990839;28;20085;-86
2023/10/14 06:27:55;;;;;;;28.45;2.70;;;8.10;99.90;;;;;;4997885;28;20049;-86
2023/10/14 06:30:21;;;;;;;19.90;1.75;;;;;;;;;;4999138;28;20057;-83
2023/10/14 06:32:48;;;;;;;22.35;2.45;;;8.10;99.90;;;;;;4995979;28;20053;-83
2023/10/14 06:35:17;;;;;;;26.05;1.85;;;8.10;99.90;;;;;;4999444;28;20626;-85
2023/10/14 06:37:45;;;;;;;26.30;1.85;;;8.10;99.90;;;;;;4987035;28;20050;-85
2023/10/14 06:40:18;;;;;;;25.02;1.95;;;8.20;99.90;;;;;;4997870;28;20049;-84
2023/10/14 06:42:50;;;;;;;22.02;1.55;;;8.20;99.90;;;;;;4993031;28;20052;-84
2023/10/14 06:45:21;;;;;;;22.17;2.05;;;8.30;99.90;;;;;;4989158;28;20474;-85
2023/10/14 06:47:50;;;;;;;19.95;1.30;;;8.30;99.90;;;;;;4996586;28;20053;-86
2023/10/14 06:50:26;;;;;;;19.00;2.53;;;8.80;99.90;;;;;;4981451;28;20049;-84
2023/10/14 06:52:58;;;;;;;21.92;1.95;;;8.60;99.90;;;;;;4995777;28;20536;-83
2023/10/14 06:55:33;;;;;;;20.38;2.30;;;9.60;99.90;;;;;;4995269;28;20698;-85
2023/10/14 06:57:59;;;;;;;18.80;1.48;;;8.50;99.90;;;;;;5012435;28;20183;-84
2023/10/14 07:00:31;;;;;;;14.30;1.38;;;10.70;99.90;;;;;;4996974;28;20053;-86
2023/10/14 07:02:59;;;;;;;21.70;1.63;;;8.50;99.90;;;;;;4989657;28;20053;-85
2023/10/14 07:05:29;;;;;;;22.20;2.20;;;8.80;99.90;;;;;;4992132;28;20138;-80
2023/10/14 07:07:58;;;;;;;24.80;1.77;;;8.60;99.90;;;;;;4997523;28;20098;-84
2023/10/14 07:10:32;;;;;;;27.45;2.38;;;8.60;99.90;;;;;;4993442;28;20239;-85
2023/10/14 07:13:00;;;;;;;23.80;2.53;;;7.20;99.90;;;;;;5010692;28;20050;-86
2023/10/14 07:15:34;;;;;;;26.92;2.92;;;9.10;99.90;;;;;;4988740;28;20160;-87
2023/10/14 07:18:01;;;;;;;19.83;2.75;;;8.80;99.90;;;;;;4998498;28;20073;-84
2023/10/14 07:20:29;;;;;;;15.73;1.98;;;10.20;99.90;;;;;;5001245;28;20050;-83
2023/10/14 07:23:00;;;;;;;13.93;1.88;;;8.90;99.90;;;;;;4996678;28;20872;-81
2023/10/14 07:25:26;;;;;;;21.35;1.63;;;9.50;99.90;;;;;;4999319;28;20055;-84
2023/10/14 07:27:52;;;;;;;21.58;2.28;;;10.50;99.90;;;;;;4994912;28;20056;-84
2023/10/14 07:30:19;;;;;;;17.92;1.73;;;8.50;99.90;;;;;;4986297;28;20057;-85
2023/10/14 07:32:47;;;;;;;24.20;2.17;;;9.20;99.90;;;;;;4985032;28;20054;-81
2023/10/14 07:35:16;;;;;;;23.27;1.40;;;9.20;99.90;;;;;;4992321;28;20049;-82
2023/10/14 07:37:46;;;;;;;61.15;4.30;;;9.60;99.90;;;;;;4988514;28;20866;-83
2023/10/14 07:40:31;;;;;;;21.88;1.95;;;9.40;99.90;;;;;;4991477;28;20915;-81
2023/10/14 07:43:10;;;;;;;16.58;1.60;;;9.40;99.90;;;;;;4992306;28;20399;-82
2023/10/14 07:45:42;;;;;;;19.67;2.00;;;9.50;99.90;;;;;;4993399;28;20053;-79
2023/10/14 07:48:09;;;;;;;19.58;1.60;;;9.30;99.90;;;;;;4995187;28;20515;-81
2023/10/14 07:50:41;;;;;;;23.10;1.60;;;10.20;99.90;;;;;;4997051;28;20080;-83
2023/10/14 07:53:08;;;;;;;21.58;1.67;;;10.00;99.90;;;;;;4993940;28;20048;-86
2023/10/14 07:55:38;;;;;;;18.17;1.80;;;10.20;99.90;;;;;;4997898;28;20046;-82
2023/10/14 07:58:08;;;;;;;16.88;1.80;;;10.70;99.90;;;;;;4995281;28;20049;-81
2023/10/14 08:00:39;;;;;;;13.60;1.58;;;10.50;99.90;;;;;;4993131;28;20162;-83
2023/10/14 08:03:07;;;;;;;24.73;2.33;;;10.20;99.90;;;;;;4997550;28;20670;-76
2023/10/14 08:05:39;;;;;;;16.98;1.52;;;10.10;99.90;;;;;;4998474;28;20052;-78
2023/10/14 08:08:07;;;;;;;19.30;2.92;;;10.30;99.90;;;;;;4998306;28;20066;-84
2023/10/14 08:10:33;;;;;;;13.45;2.28;;;10.40;99.90;;;;;;4984465;28;20107;-83
2023/10/14 08:13:04;;;;;;;20.95;2.90;;;10.70;99.90;;;;;;4984626;28;20107;-81
2023/10/14 08:15:30;;;;;;;16.27;1.83;;;11.00;99.90;;;;;;4994720;28;20045;-84
2023/10/14 08:18:00;;;;;;;17.88;1.70;;;11.00;99.90;;;;;;4998278;28;20068;-77
2023/10/14 08:20:28;;;;;;;18.88;2.60;;;11.10;99.90;;;;;;4992155;28;20048;-79
2023/10/14 08:22:54;;;;;;;14.07;2.00;;;11.20;99.90;;;;;;4972396;28;20057;-83
2023/10/14 08:25:21;;;;;;;14.55;2.97;;;11.40;99.90;;;;;;4994396;28;20064;-80
2023/10/14 08:27:47;;;;;;;22.02;3.47;;;11.60;99.90;;;;;;4991647;28;20378;-77
2023/10/14 08:30:13;;;;;;;16.73;2.05;;;11.80;99.90;;;;;;5008006;28;20049;-75
2023/10/14 08:32:46;;;;;;;9.98;1.10;;;11.80;99.90;;;;;;4996720;28;20156;-79
2023/10/14 08:35:16;;;;;;;9.98;1.05;;;11.70;99.90;;;;;;4982382;28;20054;-80
2023/10/14 08:37:47;;;;;;;18.60;2.55;;;11.60;99.90;;;;;;4993246;28;20818;-80
2023/10/14 08:40:21;;;;;;;15.32;1.95;;;14.80;99.90;;;;;;4994643;28;20115;-80
2023/10/14 08:42:51;;;;;;;11.32;0.93;;;12.20;99.90;;;;;;4992809;28;20085;-81
2023/10/14 08:45:20;;;;;;;11.10;1.02;;;11.70;99.90;;;;;;4995422;28;20061;-83
2023/10/14 08:47:50;;;;;;;14.68;1.17;;;11.70;99.90;;;;;;4996277;28;20464;-83
2023/10/14 08:50:21;;;;;;;14.95;2.13;;;11.70;99.90;;;;;;4987302;28;20063;-76
2023/10/14 08:52:49;;;;;;;11.23;1.23;;;11.80;99.90;;;;;;4988750;28;20512;-78
2023/10/14 08:55:17;;;;;;;12.20;1.33;;;11.80;99.90;;;;;;4990186;28;20050;-79
2023/10/14 08:57:46;;;;;;;17.33;1.67;;;11.90;99.90;;;;;;4996333;28;20115;-81
2023/10/14 09:00:19;;;;;;;17.02;3.65;;;12.00;99.90;;;;;;4991695;28;20045;-84
2023/10/14 09:02:55;;;;;;;16.05;1.67;;;12.10;99.90;;;;;;4985928;28;20080;-81
2023/10/14 09:05:22;;;;;;;10.77;1.20;;;12.10;99.90;;;;;;5008358;28;20049;-77
2023/10/14 09:07:49;;;;;;;14.75;1.50;;;12.20;99.90;;;;;;4992117;28;20057;-84
2023/10/14 09:10:19;;;;;;;14.10;1.67;;;12.30;99.90;;;;;;4993500;28;20054;-78
2023/10/14 09:13:08;;;;;;;9.10;1.40;;;12.30;99.90;;;;;;4996084;28;20544;-81
2023/10/14 09:15:43;;;;;;;11.10;1.20;;;12.40;99.90;;;;;;4987140;28;20053;-79
2023/10/14 09:18:17;;;;;;;13.85;1.70;;;12.40;99.90;;;;;;4996789;28;20500;-79
2023/10/14 09:20:43;;;;;;;9.80;0.60;;;12.40;99.90;;;;;;4989690;28;20053;-84
2023/10/14 09:23:21;;;;;;;22.10;2.83;;;12.40;99.90;;;;;;4991867;28;20064;-81
2023/10/14 09:25:58;;;;;;;10.68;0.93;;;12.40;99.90;;;;;;4993619;28;20468;-79
2023/10/14 09:28:33;;;;;;;15.48;1.65;;;12.40;99.90;;;;;;4996547;28;20072;-80
2023/10/14 09:30:59;;;;;;;10.23;0.93;;;12.40;99.90;;;;;;4978402;28;20053;-83
2023/10/14 09:33:27;;;;;;;10.98;2.17;;;12.40;99.90;;;;;;4995548;28;20060;-75
2023/10/14 09:35:58;;;;;;;7.85;0.65;;;12.20;99.90;;;;;;5002616;28;20045;-82
2023/10/14 09:38:25;;;;;;;11.25;1.02;;;12.00;99.90;;;;;;4996263;28;20042;-79
2023/10/14 09:40:57;;;;;;;7.45;0.88;;;11.90;99.90;;;;;;4993138;28;20056;-77
2023/10/14 09:43:24;;;;;;;11.43;1.15;;;11.90;99.90;;;;;;4989660;28;20057;-73
2023/10/14 09:45:55;;;;;;;15.30;2.25;;;11.90;99.90;;;;;;5003428;28;20062;-79
2023/10/14 09:48:25;;;;;;;11.80;1.40;;;11.90;99.90;;;;;;4969825;28;20480;-84
2023/10/14 09:50:54;;;;;;;7.15;0.90;;;11.90;99.90;;;;;;4979719;28;20077;-79
2023/10/14 09:53:26;;;;;;;8.32;0.80;;;12.00;99.90;;;;;;4995676;28;20673;-84
2023/10/14 09:55:57;;;;;;;11.65;1.70;;;12.10;99.90;;;;;;4996869;28;20050;-80
2023/10/14 09:58:25;;;;;;;9.10;1.00;;;12.10;99.90;;;;;;4996268;28;20057;-86
2023/10/14 10:00:54;;;;;;;10.20;1.17;;;12.20;99.90;;;;;;4977017;28;20526;-86
2023/10/14 10:03:22;;;;;;;17.05;1.42;;;12.20;99.90;;;;;;4991552;28;20902;-80
2023/10/14 10:06:07;;;;;;;9.98;1.50;;;12.20;99.90;;;;;;4989642;28;20053;-82
2023/10/14 10:08:35;;;;;;;9.02;1.08;;;12.30;99.90;;;;;;4971613;28;20111;-78
2023/10/14 10:11:02;;;;;;;7.85;0.70;;;12.30;99.90;;;;;;4997785;28;20049;-81
2023/10/14 10:13:29;;;;;;;13.05;0.90;;;12.30;99.90;;;;;;4992083;28;20591;-78
2023/10/14 10:16:05;;;;;;;10.90;1.10;;;12.20;99.90;;;;;;4985407;28;20476;-76
2023/10/14 10:18:56;;;;;;;8.98;0.52;;;12.10;99.90;;;;;;4968220;28;20536;-80
2023/10/14 10:21:58;;;;;;;4.82;0.40;;;11.90;99.90;;;;;;4977903;28;20153;-85
2023/10/14 10:24:38;;;;;;;8.05;0.50;;;13.00;99.90;;;;;;4984855;28;20132;-81
2023/10/14 10:27:08;;;;;;;8.60;0.98;;;11.10;99.90;;;;;;4974434;28;20060;-85
2023/10/14 10:29:57;;;;;;;12.45;1.05;;;11.00;99.90;;;;;;4977056;28;20077;-82
2023/10/14 10:32:33;;;;;;;12.25;1.10;;;10.90;99.90;;;;;;4968107;28;20172;-81
2023/10/14 10:35:05;;;;;;;9.77;0.82;;;11.30;99.90;;;;;;4964590;28;20425;-82
2023/10/14 10:37:54;;;;;;;10.85;1.65;;;11.10;99.90;;;;;;4980511;28;20124;-79
2023/10/14 10:40:28;;;;;;;7.63;0.70;;;11.30;99.90;;;;;;4956335;28;20060;-77
2023/10/14 10:43:06;;;;;;;6.00;1.40;;;11.40;99.90;;;;;;4952765;28;20049;-75
2023/10/14 10:45:35;;;;;;;8.95;0.52;;;11.30;99.90;;;;;;4991372;28;20057;-86
2023/10/14 10:48:05;;;;;;;5.25;0.60;;;9.30;99.90;;;;;;4984566;28;20045;-78
2023/10/14 10:50:39;;;;;;;8.02;0.68;;;11.00;99.90;;;;;;4977544;28;20679;-76
2023/10/14 10:53:07;;;;;;;7.38;1.25;;;10.90;99.90;;;;;;4972769;28;20061;-79
2023/10/14 10:55:37;;;;;;;7.75;0.57;;;10.80;99.90;;;;;;4996340;28;20049;-80
2023/10/14 10:58:12;;;;;;;9.60;0.73;;;10.80;99.90;;;;;;4972416;28;20045;-76
2023/10/14 11:00:45;;;;;;;5.47;0.30;;;10.80;99.90;;;;;;4978568;28;20155;-77
2023/10/14 11:03:14;;;;;;;3.90;0.38;;;10.90;99.90;;;;;;4988144;28;20132;-83
2023/10/14 11:05:42;;;;;;;7.68;0.50;;;11.00;99.90;;;;;;4984706;28;20057;-84
2023/10/14 11:08:09;;;;;;;9.13;0.77;;;10.90;99.90;;;;;;4989790;28;20079;-76
2023/10/14 11:10:42;;;;;;;6.53;0.75;;;11.00;99.90;;;;;;4982848;28;20065;-78
2023/10/14 11:13:12;;;;;;;7.88;0.50;;;11.20;99.90;;;;;;4990275;28;20049;-80
2023/10/14 11:15:43;;;;;;;4.68;0.40;;;11.30;99.90;;;;;;5000653;28;21435;-80
2023/10/14 11:18:11;;;;;;;8.93;0.95;;;11.50;99.90;;;;;;5000774;28;20623;-86
2023/10/14 11:20:41;;;;;;;12.25;1.35;;;11.60;99.90;;;;;;4965704;28;20404;-82
2023/10/14 11:23:11;;;;;;;10.48;0.65;;;11.70;99.90;;;;;;4978434;28;20296;-82
2023/10/14 11:26:02;;;;;;;9.43;0.82;;;11.80;99.90;;;;;;4987251;28;20053;-83
2023/10/14 11:28:28;;;;;;;8.85;1.30;;;11.90;99.90;;;;;;4986511;28;20154;-78
2023/10/14 11:30:58;;;;;;;8.02;0.70;;;12.00;99.90;;;;;;4988540;28;20503;-79
2023/10/14 11:33:26;;;;;;;9.27;0.98;;;12.10;99.90;;;;;;4983854;28;20547;-76
2023/10/14 11:35:52;;;;;;;11.93;0.80;;;12.10;99.90;;;;;;4984377;28;20084;-76
2023/10/14 11:38:25;;;;;;;9.23;1.02;;;12.20;99.90;;;;;;4989895;28;20057;-77
2023/10/14 11:40:52;;;;;;;10.90;0.70;;;12.30;99.90;;;;;;4974022;28;20120;-83
2023/10/14 11:43:33;;;;;;;9.00;1.52;;;12.30;99.90;;;;;;4986647;28;20053;-84
2023/10/14 11:46:02;;;;;;;3.55;0.35;;;12.30;99.90;;;;;;4983526;28;20544;-79
2023/10/14 11:48:42;;;;;;;5.20;0.90;;;12.00;99.90;;;;;;4986290;28;20049;-78
2023/10/14 11:51:12;;;;;;;3.28;0.17;;;12.00;99.90;;;;;;4988903;28;20114;-80
2023/10/14 11:54:15;;;;;;;4.38;0.40;;;12.10;99.90;;;;;;4974138;28;20510;-83
2023/10/14 11:57:27;;;;;;;9.73;1.30;;;12.30;99.90;;;;;;4986428;28;20089;-86
2023/10/14 12:00:23;;;;;;;8.63;0.98;;;12.60;99.90;;;;;;4991017;28;20138;-80
2023/10/14 12:02:58;;;;;;;8.30;0.70;;;12.90;99.90;;;;;;4989014;28;20041;-81
2023/10/14 12:05:24;;;;;;;12.77;1.95;;;13.10;99.90;;;;;;4994763;28;20242;-80
2023/10/14 12:07:53;;;;;;;6.88;0.70;;;13.20;99.90;;;;;;4992054;28;20048;-83
2023/10/14 12:10:25;;;;;;;10.70;1.08;;;13.90;99.90;;;;;;4972257;28;20058;-83
2023/10/14 12:12:59;;;;;;;10.52;1.48;;;13.20;99.90;;;;;;4990405;28;20155;-85
2023/10/14 12:15:30;;;;;;;11.30;0.52;;;12.80;99.90;;;;;;4988945;28;20109;-77
2023/10/14 12:17:59;;;;;;;9.63;1.48;;;15.10;99.90;;;;;;4974632;28;20195;-79
2023/10/14 12:20:26;;;;;;;8.30;1.63;;;12.80;99.90;;;;;;4982353;28;20144;-84
2023/10/14 12:22:52;;;;;;;11.45;1.70;;;12.60;99.90;;;;;;4984574;28;20092;-84
2023/10/14 12:25:18;;;;;;;8.60;0.90;;;12.40;99.90;;;;;;4998015;28;21512;-77
2023/10/14 12:27:44;;;;;;;7.85;1.27;;;12.20;99.90;;;;;;4968985;28;20655;-81
2023/10/14 12:30:41;;;;;;;8.20;0.50;;;12.00;99.90;;;;;;4982511;28;20065;-80
2023/10/14 12:33:19;;;;;;;5.25;0.45;;;12.00;99.90;;;;;;4980739;28;20071;-78
2023/10/14 12:35:51;;;;;;;6.25;0.60;;;11.60;99.90;;;;;;4971981;28;20297;-81
2023/10/14 12:38:20;;;;;;;;;;;11.60;99.90;;;;;;5003982;28;20077;-84
2023/10/14 12:40:49;;;;;;;7.85;1.42;;;11.40;99.90;;;;;;4984619;28;19925;-81
2023/10/14 12:43:39;;;;;;;8.93;1.00;;;11.20;99.90;;;;;;4970121;28;20127;-82
2023/10/14 12:46:15;;;;;;;13.85;1.52;;;11.10;99.90;;;;;;4972128;28;20579;-78
2023/10/14 12:48:50;;;;;;;9.50;2.00;;;11.30;99.90;;;;;;4998691;28;20045;-82
2023/10/14 12:51:21;;;;;;;10.27;1.65;;;11.50;99.90;;;;;;4985491;28;20062;-80
2023/10/14 12:53:55;;;;;;;7.15;0.52;;;11.70;99.90;;;;;;4964095;28;20062;-79
2023/10/14 12:56:30;;;;;;;10.98;1.67;;;11.70;99.90;;;;;;4997430;28;20130;-82
2023/10/14 12:59:24;;;;;;;16.33;2.58;;;11.70;99.90;;;;;;4996649;28;20080;-77
2023/10/14 13:01:58;;;;;;;12.80;1.02;;;11.70;99.90;;;;;;4995565;28;21058;-78
2023/10/14 13:04:27;;;;;;;16.48;1.77;;;11.70;99.90;;;;;;4981409;28;20053;-80
2023/10/14 13:06:57;;;;;;;13.90;1.42;;;11.60;99.90;;;;;;4974134;28;20516;-78
2023/10/14 13:09:49;;;;;;;11.25;1.00;;;11.60;99.90;;;;;;4983129;28;20058;-79
2023/10/14 13:12:15;;;;;;;13.85;1.63;;;11.60;99.90;;;;;;4973671;28;20061;-85
2023/10/14 13:14:42;;;;;;;11.23;1.50;;;11.60;99.90;;;;;;4976280;28;20049;-80
2023/10/14 13:17:08;;;;;;;10.27;1.20;;;11.70;99.90;;;;;;4978004;28;20151;-74
2023/10/14 13:19:35;;;;;;;11.77;1.52;;;11.70;99.90;;;;;;4979965;28;20123;-80
2023/10/14 13:22:26;;;;;;;9.10;0.88;;;11.70;99.90;;;;;;4964955;28;20049;-81
2023/10/14 13:24:53;;;;;;;10.90;1.15;;;11.80;99.90;;;;;;4950895;28;20702;-78
2023/10/14 13:27:19;;;;;;;18.27;2.10;;;11.80;99.90;;;;;;4938526;28;20059;-84
2023/10/14 13:29:46;;;;;;;12.32;1.52;;;11.80;99.90;;;;;;4926956;28;20054;-83
2023/10/14 13:32:15;;;;;;;11.15;1.77;;;11.80;99.90;;;;;;4948724;28;20081;-83
2023/10/14 13:34:45;;;;;;;13.77;1.63;;;11.80;99.90;;;;;;4949673;28;20116;-83
2023/10/14 13:37:16;;;;;;;15.60;2.28;;;9.30;99.90;;;;;;4945388;28;20113;-83
2023/10/14 13:39:50;;;;;;;11.20;1.13;;;11.80;99.90;;;;;;4947155;28;20050;-73